createdAt,value
2022-11-06T00:03:09.213Z,1.90
2022-11-06T00:07:10.868Z,2.97
2022-11-06T00:11:14.793Z,2.22
2022-11-06T00:15:16.786Z,3.78
2022-11-06T00:19:18.424Z,2.38
2022-11-06T00:23:20.057Z,3.67
2022-11-06T00:27:22.024Z,2.28
2022-11-06T00:31:32.808Z,1.60
2022-11-06T00:35:34.388Z,2.42
2022-11-06T00:39:35.971Z,2.03
2022-11-06T00:43:37.967Z,3.03
2022-11-06T00:47:39.713Z,1.33
2022-11-06T00:51:41.692Z,1.83
2022-11-06T00:55:43.271Z,3.72
2022-11-06T00:59:44.868Z,2.20
2022-11-06T01:03:48.679Z,2.00
2022-11-06T01:07:50.300Z,2.05
2022-11-06T01:16:17.436Z,1.92
2022-11-06T01:20:19.096Z,2.40
2022-11-06T01:24:27.232Z,1.83
2022-11-06T01:28:29.366Z,1.70
2022-11-06T01:32:30.983Z,1.25
2022-11-06T01:36:33.292Z,2.65
2022-11-06T01:40:41.567Z,2.22
2022-11-06T01:44:43.165Z,2.67
2022-11-06T01:48:58.492Z,3.00
2022-11-06T01:53:02.373Z,1.23
2022-11-06T01:57:05.319Z,1.30
2022-11-06T02:01:07.250Z,3.70
2022-11-06T02:05:09.302Z,3.35
2022-11-06T02:09:13.686Z,2.08
2022-11-06T02:13:43.365Z,3.55
2022-11-06T02:18:14.982Z,1.20
2022-11-06T02:22:26.341Z,2.65
2022-11-06T02:26:50.059Z,1.20
2022-11-06T02:30:53.625Z,1.85
2022-11-06T02:34:56.492Z,1.65
2022-11-06T02:39:03.094Z,1.20
2022-11-06T02:43:08.119Z,1.80
2022-11-06T02:47:13.720Z,2.42
2022-11-06T02:51:22.032Z,1.92
2022-11-06T02:55:35.680Z,1.42
2022-11-06T03:00:01.249Z,1.30
2022-11-06T03:04:33.687Z,1.80
2022-11-06T03:08:55.867Z,1.67
2022-11-06T03:13:05.063Z,0.80
2022-11-06T03:17:22.259Z,1.33
2022-11-06T03:21:33.156Z,1.35
2022-11-06T03:25:46.496Z,2.78
2022-11-06T03:29:54.043Z,1.73
2022-11-06T03:34:03.661Z,1.40
2022-11-06T03:38:28.156Z,1.80
2022-11-06T03:42:31.047Z,1.63
2022-11-06T03:46:37.068Z,1.58
2022-11-06T03:54:51.640Z,1.02
2022-11-06T03:58:54.763Z,1.20
2022-11-06T04:03:05.540Z,1.13
2022-11-06T04:07:15.336Z,3.20
2022-11-06T04:11:40.915Z,1.75
2022-11-06T04:15:53.697Z,1.80
2022-11-06T04:19:59.344Z,1.25
2022-11-06T04:24:43.533Z,1.48
2022-11-06T04:29:20.652Z,2.08
2022-11-06T04:33:27.075Z,1.48
2022-11-06T04:37:53.140Z,1.33
2022-11-06T04:42:11.210Z,1.17
2022-11-06T04:46:19.508Z,1.58
2022-11-06T04:50:24.506Z,1.25
2022-11-06T04:54:26.488Z,1.10
2022-11-06T04:58:28.069Z,2.40
2022-11-06T05:02:29.708Z,1.88
2022-11-06T05:06:31.358Z,2.63
2022-11-06T05:10:32.962Z,1.10
2022-11-06T05:14:34.614Z,1.25
2022-11-06T05:18:36.468Z,1.27
2022-11-06T05:23:00.727Z,2.75
2022-11-06T05:27:02.606Z,1.50
2022-11-06T05:31:04.565Z,1.60
2022-11-06T05:35:06.674Z,1.45
2022-11-06T05:39:08.349Z,1.42
2022-11-06T05:43:13.483Z,1.90
2022-11-06T05:47:15.105Z,1.92
2022-11-06T05:51:18.203Z,2.42
2022-11-06T05:55:22.721Z,1.52
2022-11-06T05:59:24.333Z,1.48
2022-11-06T06:03:26.616Z,1.10
2022-11-06T06:07:28.437Z,1.23
2022-11-06T06:11:30.179Z,1.75
2022-11-06T06:15:32.110Z,1.65
2022-11-06T06:19:33.958Z,1.70
2022-11-06T06:23:35.765Z,2.20
2022-11-06T06:27:37.543Z,0.93
2022-11-06T06:31:39.114Z,4.00
2022-11-06T06:35:40.840Z,1.70
2022-11-06T06:39:42.476Z,1.02
2022-11-06T06:43:47.340Z,1.02
2022-11-06T06:47:49.052Z,2.70
2022-11-06T06:51:50.742Z,2.38
2022-11-06T06:55:52.696Z,1.20
2022-11-06T06:59:54.276Z,1.45
2022-11-06T07:03:59.874Z,1.05
2022-11-06T07:08:04.639Z,1.50
2022-11-06T07:12:06.517Z,1.02
2022-11-06T07:16:10.794Z,1.27
2022-11-06T07:20:12.512Z,3.55
2022-11-06T07:24:14.175Z,4.25
2022-11-06T07:28:16.090Z,2.38
2022-11-06T07:32:17.925Z,0.85
2022-11-06T07:36:19.588Z,1.10
2022-11-06T07:40:21.162Z,0.75
2022-11-06T07:44:22.742Z,1.38
2022-11-06T07:48:24.321Z,1.02
2022-11-06T07:52:26.267Z,1.48
2022-11-06T07:56:27.867Z,1.48
2022-11-06T08:00:29.492Z,3.40
2022-11-06T08:04:31.101Z,1.20
2022-11-06T08:08:32.873Z,0.90
2022-11-06T08:12:34.432Z,4.55
2022-11-06T08:16:36.016Z,4.80
2022-11-06T08:20:39.130Z,1.42
2022-11-06T08:24:40.711Z,3.35
2022-11-06T08:28:42.497Z,2.33
2022-11-06T08:32:44.117Z,3.03
2022-11-06T08:36:49.513Z,3.05
2022-11-06T08:40:53.819Z,4.25
2022-11-06T08:44:55.655Z,2.15
2022-11-06T08:48:57.251Z,6.15
2022-11-06T08:53:04.291Z,2.20
2022-11-06T08:57:06.096Z,1.60
2022-11-06T09:01:08.300Z,1.83
2022-11-06T09:05:10.299Z,3.70
2022-11-06T09:09:11.890Z,3.53
2022-11-06T09:13:14.019Z,1.77
2022-11-06T09:17:16.535Z,4.47
2022-11-06T09:21:18.111Z,3.78
2022-11-06T09:25:20.472Z,7.30
2022-11-06T09:29:22.077Z,3.53
2022-11-06T09:33:23.737Z,7.53
2022-11-06T09:37:25.310Z,7.25
2022-11-06T09:41:32.659Z,6.13
2022-11-06T09:45:38.028Z,8.13
2022-11-06T09:49:55.283Z,4.63
2022-11-06T09:54:02.069Z,7.43
2022-11-06T09:58:16.865Z,7.53
2022-11-06T10:02:31.863Z,6.03
2022-11-06T10:06:33.597Z,7.15
2022-11-06T10:10:59.445Z,6.32
2022-11-06T10:15:08.512Z,8.23
2022-11-06T10:19:31.113Z,3.75
2022-11-06T10:23:44.636Z,3.90
2022-11-06T10:28:29.687Z,3.58
2022-11-06T10:33:03.282Z,5.28
2022-11-06T10:37:28.176Z,4.43
2022-11-06T10:41:33.868Z,4.60
2022-11-06T10:45:39.241Z,7.07
2022-11-06T10:49:58.653Z,5.68
2022-11-06T10:54:32.408Z,6.35
2022-11-06T10:58:34.763Z,5.43
2022-11-06T11:02:43.595Z,5.38
2022-11-06T11:06:45.232Z,8.35
2022-11-06T11:11:00.926Z,5.20
2022-11-06T11:15:18.647Z,5.47
2022-11-06T11:19:26.295Z,7.45
2022-11-06T11:23:28.289Z,5.63
2022-11-06T11:27:37.385Z,9.52
2022-11-06T11:31:39.354Z,6.80
2022-11-06T11:35:47.283Z,4.40
2022-11-06T11:39:48.886Z,5.90
2022-11-06T11:44:14.713Z,6.47
2022-11-06T11:48:16.618Z,5.53
2022-11-06T11:52:21.038Z,8.15
2022-11-06T11:56:49.600Z,8.27
2022-11-06T12:01:01.935Z,5.43
2022-11-06T12:05:09.424Z,6.38
2022-11-06T12:09:13.309Z,5.05
2022-11-06T12:13:16.999Z,7.07
2022-11-06T12:17:22.025Z,8.10
2022-11-06T12:21:34.581Z,4.18
2022-11-06T12:25:42.736Z,3.92
2022-11-06T12:30:10.719Z,5.40
2022-11-06T12:34:33.064Z,4.32
2022-11-06T12:39:03.096Z,6.88
2022-11-06T12:43:22.578Z,2.05
2022-11-06T12:47:46.174Z,6.72
2022-11-06T12:52:09.471Z,3.08
2022-11-06T12:56:22.807Z,4.93
2022-11-06T13:00:56.751Z,4.90
2022-11-06T13:05:12.560Z,4.45
2022-11-06T13:09:59.048Z,3.25
2022-11-06T13:14:26.562Z,4.67
2022-11-06T13:18:50.375Z,4.38
2022-11-06T13:23:24.352Z,3.28
2022-11-06T13:27:42.423Z,5.05
2022-11-06T13:32:01.540Z,4.72
2022-11-06T13:36:03.761Z,2.70
2022-11-06T13:41:47.068Z,3.47
2022-11-06T13:46:47.315Z,3.13
2022-11-06T13:51:18.822Z,6.35
2022-11-06T13:55:57.969Z,3.38
2022-11-06T14:00:15.884Z,5.55
2022-11-06T14:04:48.453Z,1.75
2022-11-06T14:08:56.562Z,3.28
2022-11-06T14:12:58.216Z,2.72
2022-11-06T14:17:16.330Z,3.67
2022-11-06T14:21:36.411Z,2.28
2022-11-06T14:25:41.204Z,4.72
2022-11-06T14:29:54.234Z,1.77
2022-11-06T14:34:00.462Z,5.15
2022-11-06T14:38:35.469Z,3.22
2022-11-06T14:42:40.642Z,3.35
2022-11-06T14:46:50.399Z,7.13
2022-11-06T14:50:52.047Z,1.88
2022-11-06T14:55:05.208Z,2.15
2022-11-06T14:59:16.228Z,3.05
2022-11-06T15:03:43.222Z,5.18
2022-11-06T15:08:04.373Z,2.63
2022-11-06T15:12:07.927Z,2.33
2022-11-06T15:16:12.602Z,2.55
2022-11-06T15:20:21.823Z,2.38
2022-11-06T15:24:33.975Z,2.60
2022-11-06T15:28:44.749Z,3.72
2022-11-06T15:32:48.252Z,2.85
2022-11-06T15:36:55.082Z,3.10
2022-11-06T15:40:56.722Z,3.58
2022-11-06T15:45:16.802Z,4.07
2022-11-06T15:49:21.895Z,2.28
2022-11-06T15:53:27.247Z,6.57
2022-11-06T15:57:29.763Z,2.43
2022-11-06T16:01:35.340Z,2.28
2022-11-06T16:05:37.707Z,2.30
2022-11-06T16:09:41.980Z,1.70
2022-11-06T16:13:46.513Z,3.15
2022-11-06T16:17:48.151Z,2.08
2022-11-06T16:22:01.105Z,4.20
2022-11-06T16:26:07.108Z,2.83
2022-11-06T16:30:25.046Z,3.90
2022-11-06T16:34:30.321Z,2.92
2022-11-06T16:38:43.312Z,4.03
2022-11-06T16:43:01.781Z,5.63
2022-11-06T16:47:22.710Z,5.88
2022-11-06T16:51:33.833Z,5.10
2022-11-06T16:55:35.664Z,5.60
2022-11-06T16:59:37.530Z,3.17
2022-11-06T17:03:46.370Z,3.95
2022-11-06T17:07:48.876Z,4.57
2022-11-06T17:11:54.503Z,3.63
2022-11-06T17:16:01.673Z,5.00
2022-11-06T17:20:03.884Z,4.03
2022-11-06T17:24:31.275Z,3.80
2022-11-06T17:28:28.354Z,5.22
2022-11-06T17:32:30.119Z,9.00
2022-11-06T17:36:32.894Z,5.13
2022-11-06T17:40:34.562Z,3.15
2022-11-06T17:44:36.134Z,2.42
2022-11-06T17:48:37.767Z,3.80
2022-11-06T17:52:39.357Z,3.08
2022-11-06T17:56:41.483Z,3.20
2022-11-06T18:00:43.537Z,4.18
2022-11-06T18:04:45.229Z,6.40
2022-11-06T18:08:46.837Z,2.85
2022-11-06T18:12:51.231Z,4.43
2022-11-06T18:16:53.280Z,6.00
2022-11-06T18:20:55.327Z,4.97
2022-11-06T18:24:57.153Z,3.33
2022-11-06T18:28:58.960Z,4.63
2022-11-06T18:33:00.873Z,4.50
2022-11-06T18:37:02.435Z,7.75
2022-11-06T18:41:15.009Z,5.47
2022-11-06T18:45:16.645Z,4.53
2022-11-06T18:49:18.268Z,8.07
2022-11-06T18:53:19.850Z,5.43
2022-11-06T18:57:21.414Z,4.22
2022-11-06T19:01:23.220Z,4.60
2022-11-06T19:05:25.060Z,4.97
2022-11-06T19:09:26.686Z,7.68
2022-11-06T19:13:28.428Z,5.93
2022-11-06T19:17:30.198Z,4.70
2022-11-06T19:21:32.158Z,8.75
2022-11-06T19:25:33.810Z,8.98
2022-11-06T19:29:35.989Z,5.63
2022-11-06T19:33:37.640Z,6.47
2022-11-06T19:37:40.324Z,10.50
2022-11-06T19:41:42.028Z,5.07
2022-11-06T19:45:43.658Z,9.40
2022-11-06T19:49:45.349Z,5.97
2022-11-06T19:53:46.932Z,6.43
2022-11-06T19:57:48.563Z,4.85
2022-11-06T20:01:50.348Z,7.25
2022-11-06T20:05:54.937Z,5.43
2022-11-06T20:10:01.934Z,4.93
2022-11-06T20:14:03.580Z,6.68
2022-11-06T20:18:05.261Z,6.60
2022-11-06T20:22:07.164Z,4.43
2022-11-06T20:26:08.938Z,6.40
2022-11-06T20:30:11.810Z,5.13
2022-11-06T20:34:13.407Z,5.10
2022-11-06T20:38:18.694Z,8.43
2022-11-06T20:42:20.426Z,5.23
2022-11-06T20:46:23.045Z,5.88
2022-11-06T20:50:24.775Z,6.00
2022-11-06T20:54:26.698Z,5.13
2022-11-06T20:58:29.923Z,4.82
2022-11-06T21:02:32.061Z,6.30
2022-11-06T21:06:34.002Z,5.25
2022-11-06T21:10:35.686Z,5.20
2022-11-06T21:14:37.384Z,4.95
2022-11-06T21:18:40.598Z,4.75
2022-11-06T21:22:42.206Z,5.85
2022-11-06T21:26:43.805Z,6.03
2022-11-06T21:30:47.268Z,3.92
2022-11-06T21:34:48.883Z,7.82
2022-11-06T21:38:51.526Z,5.80
2022-11-06T21:42:53.282Z,4.57
2022-11-06T21:46:54.927Z,4.53
2022-11-06T21:50:57.432Z,8.27
2022-11-06T21:55:17.792Z,4.60
2022-11-06T21:59:23.826Z,6.40
2022-11-06T22:03:25.395Z,4.72
2022-11-06T22:07:27.014Z,5.55
2022-11-06T22:11:40.426Z,5.10
2022-11-06T22:15:42.091Z,5.25
2022-11-06T22:19:43.699Z,6.68
2022-11-06T22:23:45.760Z,4.25
2022-11-06T22:27:47.442Z,5.72
2022-11-06T22:31:49.040Z,5.60
2022-11-06T22:35:50.628Z,5.47
2022-11-06T22:39:52.222Z,4.28
2022-11-06T22:43:58.838Z,5.45
2022-11-06T22:48:01.104Z,7.13
2022-11-06T22:52:02.724Z,4.22
2022-11-06T22:56:04.755Z,5.53
2022-11-06T23:00:08.501Z,3.83
2022-11-06T23:04:15.070Z,8.45
2022-11-06T23:08:17.164Z,3.10
2022-11-06T23:12:18.768Z,5.10
2022-11-06T23:16:43.732Z,5.43
2022-11-06T23:20:45.543Z,6.43
2022-11-06T23:24:47.323Z,4.18
2022-11-06T23:28:48.912Z,4.38
2022-11-06T23:32:50.515Z,2.40
2022-11-06T23:36:52.094Z,3.97
2022-11-06T23:40:53.742Z,6.07
2022-11-06T23:45:14.039Z,4.60
2022-11-06T23:49:15.637Z,3.95
2022-11-06T23:53:17.628Z,4.93
2022-11-06T23:57:20.054Z,4.70
